»·PEaware :: DAL455 KLAX-KLAS

DAL455 :: KLAX-KLAS

FLIGHT INFORMATION

Flight Status: Arrived
Operator:
Delta Air Lines
More flights by this operator :: More flights under this callsign
Pilot: Chandler H. (20598)
Aircraft: AIRBUS A320
(A320)
More flights by this aircraft type
Origin: KLAX Los Angeles Intl
United States
Destination: KLAS McCarran Intl
United States
More flights between these airports :: More routes between these airports
Route: ORCKA3 MISEN KEPEC6
File this flight plan on PilotEdge
Remarks:
Altitude:
(Current/Filed)
27,000ft
Speed:
(Current/Filed)
400kts
Departed: 24-Nov-18 02:05 PM
Arrived: 24-Nov-18 03:01 PM
Distance/Time
Traveled:
205nm/0:56
Distance/Time
To Go:
Arrived

Flight Plot

Page will automatically refresh every two minutes.

Flight plan parsing failed; only flown route is shown


Map Options




Map Legend


Flown Route
Filed Route
Departure Airport
Arrival Airport
Navaid (VOR, NDB)
Fix

Horizontal Profiles

Position Reports

Time Latitude Longitude Heading Altitude Ground
Speed
24-Nov-18 13:55 33.940376 -118.397598 53 119ft 0kts
24-Nov-18 13:56 33.940376 -118.397598 53 119ft 0kts
24-Nov-18 13:57 33.940376 -118.397598 53 119ft 0kts
24-Nov-18 13:58 33.940376 -118.397598 53 119ft 0kts
24-Nov-18 13:59 33.940375 -118.397599 53 119ft 0kts
24-Nov-18 14:00 33.940231 -118.397820 53 119ft 2kts
24-Nov-18 14:01 33.940347 -118.398264 175 120ft 1kts
24-Nov-18 14:02 33.940379 -118.398269 170 120ft 0kts
24-Nov-18 14:03 33.940347 -118.398262 170 120ft 2kts
24-Nov-18 14:04 33.940161 -118.394588 82 113ft 18kts
24-Nov-18 14:05 33.940812 -118.387382 83 108ft 24kts
24-Nov-18 14:06 33.940753 -118.380602 84 104ft 14kts
24-Nov-18 14:07 33.939818 -118.380374 261 104ft 13kts
24-Nov-18 14:08 33.935287 -118.422680 262 1347ft 204kts
24-Nov-18 14:09 33.919338 -118.495947 249 4350ft 262kts
24-Nov-18 14:10 33.891177 -118.577445 249 5041ft 265kts
24-Nov-18 14:11 33.845765 -118.641591 185 6433ft 285kts
24-Nov-18 14:12 33.797160 -118.579256 80 9715ft 299kts
24-Nov-18 14:13 33.851739 -118.508084 33 12426ft 320kts
24-Nov-18 14:14 33.924408 -118.442669 39 15246ft 336kts
24-Nov-18 14:15 33.980127 -118.349502 52 17812ft 352kts
24-Nov-18 14:16 34.035986 -118.250992 52 20127ft 363kts
24-Nov-18 14:17 34.093263 -118.149844 52 22204ft 374kts
24-Nov-18 14:18 34.151589 -118.046502 52 24094ft 383kts
24-Nov-18 14:19 34.211945 -117.939230 52 25835ft 392kts
24-Nov-18 14:20 34.273271 -117.829901 52 27030ft 397kts
24-Nov-18 14:21 34.334837 -117.719835 52 27032ft 397kts
24-Nov-18 14:22 34.398712 -117.610682 51 27020ft 415kts
24-Nov-18 14:23 34.469208 -117.491498 51 27014ft 454kts
24-Nov-18 14:24 34.542711 -117.366945 51 27017ft 458kts
24-Nov-18 14:25 34.614978 -117.244071 52 27018ft 458kts
24-Nov-18 14:26 34.688554 -117.118501 52 27022ft 458kts
24-Nov-18 14:27 34.762362 -116.992080 52 26970ft 460kts
24-Nov-18 14:28 34.836189 -116.865172 52 26947ft 465kts
24-Nov-18 14:29 34.910558 -116.736876 51 26989ft 467kts
24-Nov-18 14:30 34.984622 -116.608647 51 27009ft 467kts
24-Nov-18 14:31 35.058667 -116.479984 50 27022ft 465kts
24-Nov-18 14:32 35.142927 -116.364953 34 27018ft 456kts
24-Nov-18 14:33 35.241549 -116.270823 34 27000ft 455kts
24-Nov-18 14:34 35.340577 -116.175813 34 26512ft 452kts
24-Nov-18 14:35 35.438228 -116.081833 34 25553ft 446kts
24-Nov-18 14:36 35.534174 -115.989197 34 24037ft 431kts
24-Nov-18 14:37 35.625908 -115.900364 35 21766ft 416kts
24-Nov-18 14:38 35.714666 -115.814142 35 19472ft 402kts
24-Nov-18 14:39 35.800611 -115.730398 35 17217ft 388kts
24-Nov-18 14:40 35.883370 -115.649497 35 14957ft 376kts
24-Nov-18 14:41 35.962873 -115.570340 43 13149ft 354kts
24-Nov-18 14:42 36.000994 -115.469585 65 12588ft 297kts
24-Nov-18 14:43 36.029116 -115.379887 74 11111ft 275kts
24-Nov-18 14:44 36.024576 -115.285584 93 10200ft 275kts
24-Nov-18 14:45 36.017960 -115.194710 92 8850ft 250kts
24-Nov-18 14:46 36.012287 -115.110489 92 8087ft 247kts
24-Nov-18 14:47 36.007164 -115.029147 91 8068ft 247kts
24-Nov-18 14:48 36.002173 -114.944682 90 8053ft 249kts
24-Nov-18 14:49 35.997061 -114.859842 91 8050ft 249kts
24-Nov-18 14:50 35.991632 -114.774534 91 8050ft 248kts
24-Nov-18 14:51 35.986502 -114.697586 90 8052ft 207kts
24-Nov-18 14:52 35.982273 -114.627287 76 8051ft 203kts
24-Nov-18 14:53 36.024955 -114.602377 2 8053ft 183kts
24-Nov-18 14:54 36.065400 -114.623976 278 8057ft 188kts
24-Nov-18 14:55 36.070164 -114.688293 279 8073ft 185kts
24-Nov-18 14:56 36.074391 -114.751896 276 7818ft 187kts
24-Nov-18 14:57 36.074429 -114.812387 273 7034ft 168kts
24-Nov-18 14:58 36.074327 -114.869821 273 6036ft 168kts
24-Nov-18 14:59 36.074075 -114.927840 272 5178ft 169kts
24-Nov-18 15:00 36.073935 -114.985792 272 4276ft 166kts
24-Nov-18 15:01 36.073812 -115.037616 268 3469ft 143kts
24-Nov-18 15:02 36.073730 -115.087062 268 2706ft 144kts
24-Nov-18 15:03 36.073676 -115.135718 269 2076ft 120kts
24-Nov-18 15:04 36.074318 -115.154294 298 2137ft 17kts
24-Nov-18 15:05 36.074472 -115.154635 300 2138ft 0kts
24-Nov-18 15:06 36.077923 -115.157854 57 2144ft 21kts
24-Nov-18 15:07 36.078025 -115.148420 50 2107ft 26kts

Navigation Log

Ident Type
Flight plan parsing failed, navigation log unavailable